TimeCDT,TemperatureF,Dew PointF,Humidity,Sea Level PressureIn,VisibilityMPH,Wind Direction,Wind SpeedMPH,Gust SpeedMPH,PrecipitationIn,Events,Conditions,WindDirDegrees,DateUTC
12:15 AM,-9999,-9999,N/A,30.10,5.0,Calm,Calm,-,N/A,,Haze,0,2012-10-04 05:15:00
12:35 AM,-9999,-9999,N/A,30.10,5.0,Calm,Calm,-,N/A,,Haze,0,2012-10-04 05:35:00
12:55 AM,-9999,-9999,N/A,30.10,5.0,Calm,Calm,-,N/A,,Haze,0,2012-10-04 05:55:00
1:15 AM,-9999,-9999,N/A,30.10,5.0,Calm,Calm,-,N/A,,Haze,0,2012-10-04 06:15:00
1:35 AM,-9999,-9999,N/A,30.11,5.0,Calm,Calm,-,N/A,,Haze,0,2012-10-04 06:35:00
1:55 AM,-9999,-9999,N/A,30.11,5.0,Calm,Calm,-,N/A,,Haze,0,2012-10-04 06:55:00
2:15 AM,-9999,-9999,N/A,30.11,5.0,Calm,Calm,-,N/A,,Haze,0,2012-10-04 07:15:00
2:35 AM,-9999,-9999,N/A,30.12,5.0,Calm,Calm,-,N/A,,Haze,0,2012-10-04 07:35:00
2:55 AM,-9999,-9999,N/A,30.12,5.0,Calm,Calm,-,N/A,,Haze,0,2012-10-04 07:55:00
3:15 AM,-9999,-9999,N/A,30.12,5.0,Calm,Calm,-,N/A,,Haze,0,2012-10-04 08:15:00
3:35 AM,-9999,-9999,N/A,30.12,5.0,Calm,Calm,-,N/A,,Haze,0,2012-10-04 08:35:00
3:55 AM,-9999,-9999,N/A,30.12,5.0,Calm,Calm,-,N/A,,Haze,0,2012-10-04 08:55:00
4:15 AM,-9999,-9999,N/A,30.13,5.0,Calm,Calm,-,N/A,,Haze,0,2012-10-04 09:15:00
4:35 AM,-9999,-9999,N/A,30.13,5.0,Calm,Calm,-,N/A,,Haze,0,2012-10-04 09:35:00
4:55 AM,59.0,59.0,100,30.13,4.0,Calm,Calm,-,N/A,,Clear,0,2012-10-04 09:55:00
5:15 AM,-9999,-9999,N/A,30.14,5.0,Calm,Calm,-,N/A,,Haze,0,2012-10-04 10:15:00
5:35 AM,-9999,-9999,N/A,30.15,4.0,Calm,Calm,-,N/A,,Haze,0,2012-10-04 10:35:00
5:55 AM,-9999,-9999,N/A,30.15,3.0,Calm,Calm,-,N/A,,Scattered Clouds,0,2012-10-04 10:55:00
6:15 AM,-9999,-9999,N/A,30.16,3.0,Calm,Calm,-,N/A,,Overcast,0,2012-10-04 11:15:00
6:35 AM,57.2,57.2,100,30.16,0.8,Calm,Calm,-,N/A,,Overcast,0,2012-10-04 11:35:00
6:55 AM,57.2,57.2,100,30.16,0.8,Calm,Calm,-,N/A,,Overcast,0,2012-10-04 11:55:00
7:15 AM,59.0,59.0,100,30.16,0.2,Calm,Calm,-,N/A,Fog,Fog,0,2012-10-04 12:15:00
7:35 AM,59.0,59.0,100,30.17,0.2,Calm,Calm,-,N/A,Fog,Fog,0,2012-10-04 12:35:00
7:55 AM,60.8,60.8,100,30.17,0.2,Calm,Calm,-,N/A,Fog,Fog,0,2012-10-04 12:55:00
8:15 AM,62.6,62.6,100,30.18,0.2,Calm,Calm,-,N/A,Fog,Fog,0,2012-10-04 13:15:00
8:35 AM,66.2,66.2,100,30.18,3.0,Calm,Calm,-,N/A,,Overcast,0,2012-10-04 13:35:00
8:55 AM,68.0,68.0,100,30.19,5.0,ESE,3.5,-,N/A,,Overcast,110,2012-10-04 13:55:00
9:15 AM,69.8,69.8,100,30.20,10.0,ESE,3.5,-,N/A,,Overcast,110,2012-10-04 14:15:00
9:35 AM,73.4,73.4,100,30.20,10.0,SE,5.8,-,N/A,,Overcast,140,2012-10-04 14:35:00
9:55 AM,75.2,73.4,94,30.21,10.0,ESE,5.8,-,N/A,,Mostly Cloudy,110,2012-10-04 14:55:00
10:15 AM,77.0,69.8,78,30.21,10.0,ESE,4.6,-,N/A,,Mostly Cloudy,110,2012-10-04 15:15:00
10:35 AM,78.8,68.0,69,30.20,10.0,ESE,4.6,-,N/A,,Mostly Cloudy,110,2012-10-04 15:35:00
10:55 AM,78.8,66.2,65,30.20,10.0,ESE,5.8,-,N/A,,Mostly Cloudy,110,2012-10-04 15:55:00
11:15 AM,80.6,66.2,61,30.21,10.0,ESE,8.1,-,N/A,,Scattered Clouds,110,2012-10-04 16:15:00
11:35 AM,80.6,64.4,58,30.20,10.0,SE,5.8,-,N/A,,Clear,130,2012-10-04 16:35:00
11:55 AM,82.4,64.4,54,30.20,10.0,SE,4.6,-,N/A,,Clear,140,2012-10-04 16:55:00
12:15 PM,82.4,62.6,51,30.20,10.0,SE,4.6,-,N/A,,Scattered Clouds,130,2012-10-04 17:15:00
12:35 PM,84.2,64.4,51,30.19,10.0,SE,3.5,-,N/A,,Scattered Clouds,140,2012-10-04 17:35:00
12:55 PM,82.4,62.6,51,30.18,10.0,ESE,5.8,-,N/A,,Scattered Clouds,110,2012-10-04 17:55:00
1:15 PM,82.4,62.6,51,30.18,10.0,East,4.6,-,N/A,,Scattered Clouds,100,2012-10-04 18:15:00
1:35 PM,82.4,62.6,51,30.17,10.0,ESE,4.6,-,N/A,,Mostly Cloudy,120,2012-10-04 18:35:00
1:55 PM,84.2,62.6,48,30.16,10.0,SSE,4.6,-,N/A,,Scattered Clouds,160,2012-10-04 18:55:00
2:15 PM,84.2,62.6,48,30.15,10.0,SSW,4.6,-,N/A,,Scattered Clouds,210,2012-10-04 19:15:00
2:35 PM,84.2,62.6,48,30.15,10.0,South,3.5,-,N/A,,Scattered Clouds,190,2012-10-04 19:35:00
2:55 PM,84.2,60.8,45,30.15,10.0,South,4.6,-,N/A,,Clear,170,2012-10-04 19:55:00
3:15 PM,84.2,60.8,45,30.14,10.0,South,3.5,-,N/A,,Clear,170,2012-10-04 20:15:00
3:35 PM,86.0,60.8,43,30.14,10.0,SSW,3.5,-,N/A,,Clear,210,2012-10-04 20:35:00
3:55 PM,84.2,62.6,48,30.14,10.0,SE,5.8,-,N/A,,Scattered Clouds,140,2012-10-04 20:55:00
4:15 PM,86.0,60.8,43,30.13,10.0,ESE,3.5,-,N/A,,Clear,110,2012-10-04 21:15:00
4:35 PM,84.2,62.6,48,30.13,10.0,Calm,Calm,-,N/A,,Clear,0,2012-10-04 21:35:00
4:55 PM,84.2,60.8,45,30.13,10.0,Calm,Calm,-,N/A,,Clear,0,2012-10-04 21:55:00
5:15 PM,84.2,60.8,45,30.13,10.0,Calm,Calm,-,N/A,,Clear,0,2012-10-04 22:15:00
5:35 PM,84.2,62.6,48,30.13,10.0,Calm,Calm,-,N/A,,Clear,0,2012-10-04 22:35:00
5:55 PM,82.4,64.4,54,30.13,10.0,Calm,Calm,-,N/A,,Clear,0,2012-10-04 22:55:00
6:15 PM,80.6,66.2,61,30.13,10.0,Calm,Calm,-,N/A,,Clear,0,2012-10-04 23:15:00
6:35 PM,77.0,69.8,78,30.13,10.0,Calm,Calm,-,N/A,,Clear,0,2012-10-04 23:35:00
6:55 PM,73.4,73.4,100,30.13,10.0,Calm,Calm,-,N/A,,Clear,0,2012-10-04 23:55:00
7:15 PM,-9999,-9999,N/A,30.13,5.0,Calm,Calm,-,N/A,,Haze,0,2012-10-05 00:15:00
7:35 PM,-9999,-9999,N/A,30.13,5.0,Calm,Calm,-,N/A,,Haze,0,2012-10-05 00:35:00
7:55 PM,-9999,-9999,N/A,30.13,5.0,Calm,Calm,-,N/A,,Haze,0,2012-10-05 00:55:00
8:15 PM,-9999,-9999,N/A,30.14,5.0,Calm,Calm,-,N/A,,Haze,0,2012-10-05 01:15:00
8:35 PM,-9999,-9999,N/A,30.14,7.0,Calm,Calm,-,N/A,,Clear,0,2012-10-05 01:35:00
8:55 PM,-9999,-9999,N/A,30.15,5.0,Calm,Calm,-,N/A,,Haze,0,2012-10-05 01:55:00
9:15 PM,-9999,-9999,N/A,30.14,5.0,Calm,Calm,-,N/A,,Haze,0,2012-10-05 02:15:00
9:35 PM,-9999,-9999,N/A,30.14,5.0,Calm,Calm,-,N/A,,Haze,0,2012-10-05 02:35:00
9:55 PM,-9999,-9999,N/A,30.14,5.0,Calm,Calm,-,N/A,,Haze,0,2012-10-05 02:55:00
10:15 PM,-9999,-9999,N/A,30.15,7.0,Calm,Calm,-,N/A,,Clear,0,2012-10-05 03:15:00
10:35 PM,-9999,-9999,N/A,30.15,4.0,Calm,Calm,-,N/A,,Haze,0,2012-10-05 03:35:00
10:55 PM,-9999,-9999,N/A,30.15,4.0,Calm,Calm,-,N/A,,Haze,0,2012-10-05 03:55:00
11:15 PM,-9999,-9999,N/A,30.15,5.0,Calm,Calm,-,N/A,,Haze,0,2012-10-05 04:15:00
11:35 PM,-9999,-9999,N/A,30.15,5.0,Calm,Calm,-,N/A,,Haze,0,2012-10-05 04:35:00
11:55 PM,-9999,-9999,N/A,30.15,5.0,Calm,Calm,-,N/A,,Haze,0,2012-10-05 04:55:00